Time;durP1;ratioP1;P1;durP2;ratioP2;P2;SDS_P1;SDS_P2;PMS_P1;PMS_P2;Temp;Humidity;BMP_temperature;BMP_pressure;BME280_temperature;BME280_humidity;BME280_pressure;Samples;Min_cycle;Max_cycle;Signal;HPM_P1;HPM_P2
2023/11/05 03:07:42;;;;;;;5.90;1.90;;;;;;;22.31;100.00;98730.48;106689;1255;61692;-85
2023/11/05 03:10:16;;;;;;;7.00;1.60;;;;;;;22.26;100.00;98730.51;106089;1256;61268;-85
2023/11/05 03:12:50;;;;;;;7.20;1.80;;;;;;;22.29;100.00;98731.61;106007;1262;73438;-85
2023/11/05 03:15:24;;;;;;;14.40;2.00;;;;;;;22.25;100.00;98728.20;106071;1256;69216;-85
2023/11/05 03:17:52;;;;;;;9.90;2.00;;;;;;;22.17;100.00;98727.46;107000;1259;72637;-84
2023/11/05 03:20:26;;;;;;;6.00;2.00;;;;;;;22.25;100.00;98730.40;106229;1258;61301;-84
2023/11/05 03:23:05;;;;;;;7.30;1.60;;;;;;;22.40;100.00;98726.57;106045;1258;61242;-84
2023/11/05 03:25:41;;;;;;;4.10;1.00;;;;;;;22.37;100.00;98722.13;105972;1260;74716;-83
2023/11/05 03:28:09;;;;;;;6.20;1.40;;;;;;;22.49;100.00;98725.61;106696;1256;69305;-84
2023/11/05 03:30:43;;;;;;;7.70;1.50;;;;;;;22.51;100.00;98724.80;106014;1262;71427;-84
2023/11/05 03:33:22;;;;;;;5.40;1.20;;;;;;;22.55;100.00;98725.02;106009;1254;61660;-84
2023/11/05 03:35:56;;;;;;;6.80;1.40;;;;;;;22.54;100.00;98718.34;106061;1260;61201;-83
2023/11/05 03:38:24;;;;;;;8.40;1.50;;;;;;;22.61;100.00;98716.98;106285;1257;73440;-84
2023/11/05 03:40:57;;;;;;;7.40;2.30;;;;;;;22.58;100.00;98726.14;106622;1255;67335;-84
2023/11/05 03:43:38;;;;;;;3.90;1.20;;;;;;;22.50;100.00;98729.65;106168;1256;72669;-84
2023/11/05 03:46:05;;;;;;;7.10;1.50;;;;;;;22.57;100.00;98719.77;106205;1257;61898;-85
2023/11/05 03:48:33;;;;;;;3.80;1.00;;;;;;;22.52;100.00;98714.30;106003;1254;61288;-84
2023/11/05 03:51:21;;;;;;;6.00;1.30;;;;;;;22.44;100.00;98722.20;106694;1256;73366;-85
2023/11/05 03:54:02;;;;;;;2.90;0.90;;;;;;;22.41;100.00;98729.20;106109;1259;68715;-85
2023/11/05 03:56:36;;;;;;;6.00;1.30;;;;;;;22.27;100.00;98743.14;106017;1258;71309;-84
2023/11/05 03:59:11;;;;;;;4.00;0.90;;;;;;;22.25;100.00;98752.04;106166;1258;61309;-84
2023/11/05 04:01:55;;;;;;;4.00;0.90;;;;;;;22.21;100.00;98758.96;106485;1260;61234;-84
2023/11/05 04:04:30;;;;;;;9.20;1.50;;;;;;;22.22;100.00;98772.55;106028;1258;75044;-84
2023/11/05 04:06:58;;;;;;;5.70;1.70;;;;;;;22.19;100.00;98785.95;106137;1256;69317;-84
2023/11/05 04:09:37;;;;;;;4.60;1.10;;;;;;;22.21;100.00;98790.51;106782;1254;72970;-86
2023/11/05 04:12:05;;;;;;;4.70;0.60;;;;;;;22.07;100.00;98795.88;106076;1256;61184;-84
2023/11/05 04:14:45;;;;;;;3.10;0.70;;;;;;;22.08;100.00;98794.53;106035;1254;61805;-84
2023/11/05 04:17:13;;;;;;;5.00;1.00;;;;;;;21.98;100.00;98795.96;106198;1261;73692;-84
2023/11/05 04:19:40;;;;;;;2.10;0.50;;;;;;;21.89;100.00;98805.17;106016;1259;67457;-84
2023/11/05 04:22:20;;;;;;;5.40;0.70;;;;;;;21.79;100.00;98820.88;106455;1257;71958;-84
2023/11/05 04:24:55;;;;;;;1.80;0.70;;;;;;;21.86;100.00;98834.32;106007;1255;61362;-84
2023/11/05 04:27:34;;;;;;;3.40;0.60;;;;;;;21.98;100.00;98840.76;106118;1257;61236;-85
2023/11/05 04:30:02;;;;;;;4.30;0.80;;;;;;;22.02;100.00;98855.24;106049;1255;73258;-85
2023/11/05 04:32:42;;;;;;;4.00;0.90;;;;;;;22.09;100.00;98869.72;106868;1260;68356;-84
2023/11/05 04:35:10;;;;;;;2.10;0.40;;;;;;;22.18;100.00;98888.98;106129;1260;71280;-85
2023/11/05 04:37:44;;;;;;;2.30;0.30;;;;;;;22.20;95.74;98905.12;106015;1258;61290;-83
2023/11/05 04:40:24;;;;;;;0.20;0.10;;;;;;;22.06;84.59;98926.53;105916;1255;61300;-83
2023/11/05 04:42:58;;;;;;;1.40;0.10;;;;;;;21.83;78.64;98935.52;106499;1260;74689;-83
2023/11/05 04:45:30;;;;;;;0.20;0.10;;;;;;;21.78;73.86;98940.89;105978;1260;68451;-84
2023/11/05 04:48:06;;;;;;;0.10;0.10;;;;;;;21.57;73.87;98952.33;105928;1261;72711;-85
2023/11/05 04:50:40;;;;;;;1.70;0.10;;;;;;;21.40;75.44;98961.27;106119;1258;61233;-86
2023/11/05 04:53:14;;;;;;;0.20;0.20;;;;;;;21.22;76.64;98961.77;107433;1254;59780;-86
2023/11/05 04:55:41;;;;;;;0.20;0.10;;;;;;;21.15;77.35;98968.17;106074;1258;73405;-85
2023/11/05 04:58:15;;;;;;;0.20;0.20;;;;;;;21.11;76.47;98969.48;106098;1259;68846;-84
2023/11/05 05:00:49;;;;;;;1.00;0.20;;;;;;;20.99;77.21;98971.08;106173;1257;71164;-84
2023/11/05 05:03:17;;;;;;;0.50;0.20;;;;;;;20.81;78.66;98974.98;106138;1254;61858;-84
2023/11/05 05:05:57;;;;;;;0.30;0.10;;;;;;;20.69;80.10;98974.39;106868;1254;61232;-84
2023/11/05 05:08:31;;;;;;;1.00;0.20;;;;;;;20.48;82.32;98982.19;106155;1254;74295;-84
2023/11/05 05:11:12;;;;;;;0.10;0.10;;;;;;;20.33;83.82;98989.25;106020;1260;68464;-87
2023/11/05 05:13:40;;;;;;;0.40;0.10;;;;;;;20.31;84.68;99004.20;106570;1254;71479;-86
2023/11/05 05:16:20;;;;;;;0.70;0.20;;;;;;;20.23;85.95;99019.08;106117;1260;61399;-86
2023/11/05 05:18:54;;;;;;;0.30;0.30;;;;;;;20.29;85.84;99031.38;106101;1254;61347;-87
2023/11/05 05:21:28;;;;;;;0.10;0.10;;;;;;;20.23;86.01;99043.34;106319;1260;73342;-86
2023/11/05 05:23:56;;;;;;;0.40;0.40;;;;;;;20.19;86.73;99042.81;106791;1260;68375;-87
2023/11/05 05:26:30;;;;;;;0.60;0.50;;;;;;;20.11;87.47;99052.06;106100;1259;72697;-84
2023/11/05 05:29:10;;;;;;;2.90;0.40;;;;;;;20.10;87.17;99062.44;106115;1258;61321;-86
2023/11/05 05:31:44;;;;;;;0.80;0.60;;;;;;;20.08;87.07;99066.21;106033;1254;61110;-88
2023/11/05 05:34:11;;;;;;;1.40;0.70;;;;;;;20.13;86.87;99063.18;106758;1257;73680;-87
2023/11/05 05:36:45;;;;;;;0.60;0.60;;;;;;;20.08;86.88;99063.11;106123;1255;68477;-86
2023/11/05 05:39:25;;;;;;;0.90;0.70;;;;;;;19.99;87.12;99057.80;106032;1260;72750;-87
2023/11/05 05:42:03;;;;;;;0.70;0.60;;;;;;;19.92;87.49;99057.07;105926;1260;61310;-84
2023/11/05 05:44:30;;;;;;;1.20;0.60;;;;;;;19.85;88.28;99078.02;106917;1256;61182;-87
2023/11/05 05:47:04;;;;;;;0.50;0.50;;;;;;;19.79;89.14;99085.55;106036;1254;74652;-85
2023/11/05 05:49:45;;;;;;;0.60;0.60;;;;;;;19.81;89.27;99094.13;106230;1254;67424;-88
2023/11/05 05:52:13;;;;;;;1.60;0.70;;;;;;;19.75;89.96;99096.42;106084;1255;72652;-87
2023/11/05 05:54:45;;;;;;;0.60;0.50;;;;;;;19.78;89.56;99097.42;106136;1259;61351;-87
2023/11/05 05:57:25;;;;;;;;;;;;;;;19.78;89.91;99109.21;106835;1254;61287;-88
2023/11/05 06:00:05;;;;;;;1.40;0.90;;;;;;;19.74;90.36;99110.65;106206;1255;73362;-85
2023/11/05 06:02:45;;;;;;;0.80;0.80;;;;;;;19.67;91.21;99113.55;106227;1258;67462;-84
2023/11/05 06:05:25;;;;;;;0.60;0.60;;;;;;;19.66;91.70;99118.12;106067;1257;71504;-84
2023/11/05 06:08:05;;;;;;;0.40;0.30;;;;;;;19.75;91.55;99119.92;106642;1254;59576;-84
2023/11/05 06:10:45;;;;;;;0.70;0.50;;;;;;;19.80;91.54;99120.40;106028;1260;61390;-84
2023/11/05 06:13:25;;;;;;;0.30;0.30;;;;;;;19.95;90.75;99127.66;105893;1254;73467;-84
2023/11/05 06:16:05;;;;;;;0.40;0.30;;;;;;;19.99;90.35;99133.34;106109;1254;68466;-84
2023/11/05 06:18:46;;;;;;;2.50;0.90;;;;;;;19.99;90.42;99131.85;106606;1260;72653;-84
2023/11/05 06:21:26;;;;;;;0.50;0.30;;;;;;;19.98;90.60;99134.69;106005;1255;61246;-86
2023/11/05 06:24:02;;;;;;;0.30;0.30;;;;;;;20.01;90.68;99136.08;106172;1255;61356;-86
2023/11/05 06:26:37;;;;;;;0.30;0.20;;;;;;;20.10;89.98;99130.98;106904;1254;74684;-83
2023/11/05 06:29:11;;;;;;;0.60;0.20;;;;;;;20.26;88.63;99132.60;106091;1260;67128;-86
2023/11/05 06:31:45;;;;;;;0.90;0.20;;;;;;;20.31;88.16;99142.72;106118;1258;72683;-85
2023/11/05 06:34:18;;;;;;;0.30;0.30;;;;;;;20.29;87.99;99142.78;105978;1254;61291;-86
2023/11/05 06:37:03;;;;;;;0.20;0.10;;;;;;;20.26;88.28;99145.59;106037;1257;61250;-84
2023/11/05 06:39:37;;;;;;;0.10;0.10;;;;;;;20.42;86.51;99148.73;107793;1257;73394;-84
2023/11/05 06:42:11;;;;;;;1.30;0.40;;;;;;;20.46;85.38;99152.91;108199;1254;68360;-85
2023/11/05 06:44:46;;;;;;;0.20;0.20;;;;;;;20.48;84.73;99164.34;107053;1254;72634;-86
2023/11/05 06:47:20;;;;;;;0.30;0.20;;;;;;;20.45;85.03;99162.64;107853;1257;61341;-86
2023/11/05 06:49:56;;;;;;;0.20;0.20;;;;;;;20.47;84.39;99156.02;105941;1257;61509;-86
2023/11/05 06:52:30;;;;;;;0.30;0.20;;;;;;;20.45;84.45;99146.48;105917;1257;74717;-86
2023/11/05 06:55:04;;;;;;;1.70;0.40;;;;;;;20.42;84.04;99152.77;106268;1259;68722;-87
2023/11/05 06:57:39;;;;;;;0.40;0.20;;;;;;;20.39;83.95;99148.38;106860;1260;73134;-83
2023/11/05 07:00:15;;;;;;;1.50;0.10;;;;;;;20.32;83.26;99148.61;106200;1254;60401;-84
2023/11/05 07:02:49;;;;;;;1.70;0.80;;;;;;;20.27;84.20;99153.30;106407;1254;61343;-86
2023/11/05 19:05:20;;;;;;;11.60;4.40;;;;;;;18.52;100.00;98981.59;106124;1258;61970;-83
2023/11/05 19:08:01;;;;;;;8.10;4.30;;;;;;;18.50;100.00;98975.33;106142;1260;74687;-84
2023/11/05 19:10:43;;;;;;;9.40;4.60;;;;;;;18.60;100.00;98975.96;106872;1255;68366;-84
2023/11/05 19:13:30;;;;;;;8.00;4.60;;;;;;;18.64;100.00;98967.83;106107;1254;74988;-86
2023/11/05 19:16:10;;;;;;;6.50;4.20;;;;;;;18.80;100.00;98972.38;106102;1257;62853;-85
2023/11/05 19:18:50;;;;;;;6.70;4.60;;;;;;;18.87;100.00;98973.77;106201;1259;61153;-85
2023/11/05 19:21:31;;;;;;;6.70;4.00;;;;;;;18.81;100.00;98971.60;106261;1259;75468;-83
2023/11/05 19:24:11;;;;;;;8.30;3.90;;;;;;;18.78;100.00;98971.53;107129;1255;68530;-85
2023/11/05 19:26:50;;;;;;;7.80;4.50;;;;;;;18.82;100.00;98970.99;106156;1259;73557;-84
2023/11/05 19:29:30;;;;;;;7.30;4.00;;;;;;;18.94;100.00;98976.87;106392;1256;61217;-84
2023/11/05 19:32:12;;;;;;;5.50;3.80;;;;;;;19.01;100.00;98976.20;106444;1254;61952;-84
2023/11/05 19:34:55;;;;;;;9.30;4.70;;;;;;;19.11;100.00;98975.94;106215;1254;75901;-84
2023/11/05 19:37:35;;;;;;;6.10;3.50;;;;;;;19.23;100.00;98975.33;106264;1259;69459;-85
2023/11/05 19:40:16;;;;;;;6.90;4.10;;;;;;;19.29;100.00;98974.55;106282;1256;74151;-85
2023/11/05 19:42:56;;;;;;;7.60;4.40;;;;;;;19.48;100.00;98973.30;106926;1254;62899;-85
2023/11/05 19:45:36;;;;;;;7.50;4.50;;;;;;;19.69;100.00;98975.27;106146;1260;61217;-85
2023/11/05 19:48:17;;;;;;;7.20;4.00;;;;;;;19.84;100.00;98976.73;106072;1255;76657;-84
2023/11/05 19:51:04;;;;;;;6.60;3.90;;;;;;;19.87;100.00;98971.61;106153;1260;70072;-84
2023/11/05 19:53:43;;;;;;;8.50;4.00;;;;;;;19.76;100.00;98965.71;106525;1254;73774;-84
2023/11/05 19:56:26;;;;;;;7.30;3.60;;;;;;;19.68;100.00;98963.30;106301;1261;61167;-84
2023/11/05 19:59:06;;;;;;;8.10;3.60;;;;;;;19.75;100.00;98956.59;106337;1256;61347;-84
2023/11/05 20:01:47;;;;;;;5.70;3.60;;;;;;;19.87;100.00;98954.04;106298;1261;76491;-84
2023/11/05 20:04:27;;;;;;;12.40;4.30;;;;;;;19.93;100.00;98950.30;106766;1255;68002;-84
2023/11/05 20:07:12;;;;;;;6.40;3.30;;;;;;;19.90;100.00;98951.47;106283;1258;73914;-84
2023/11/05 20:09:52;;;;;;;8.10;3.60;;;;;;;19.84;100.00;98942.36;106260;1259;62928;-83
2023/11/05 20:12:32;;;;;;;7.80;3.60;;;;;;;19.86;100.00;98941.43;106922;1254;62315;-85
2023/11/05 20:15:15;;;;;;;7.20;3.30;;;;;;;19.98;100.00;98931.42;106413;1257;76178;-84
2023/11/05 20:17:55;;;;;;;4.40;3.20;;;;;;;19.81;100.00;98928.79;106348;1256;69467;-84
2023/11/05 20:20:36;;;;;;;8.60;3.50;;;;;;;19.71;100.00;98929.86;106421;1256;73874;-85
2023/11/05 20:23:16;;;;;;;5.90;2.90;;;;;;;19.63;100.00;98925.46;106845;1256;62594;-83
2023/11/05 20:25:56;;;;;;;6.60;3.50;;;;;;;19.61;100.00;98920.77;106268;1256;62175;-83
2023/11/05 20:28:35;;;;;;;5.10;3.40;;;;;;;19.69;100.00;98918.13;106132;1258;76108;-84
2023/11/05 20:31:20;;;;;;;6.30;3.20;;;;;;;19.78;100.00;98911.25;107093;1258;69991;-85
2023/11/05 20:34:00;;;;;;;6.40;2.50;;;;;;;19.74;100.00;98917.95;106822;1254;74137;-84
2023/11/05 20:36:41;;;;;;;7.00;2.90;;;;;;;19.66;100.00;98916.57;106427;1256;61237;-85
2023/11/05 20:39:23;;;;;;;5.70;2.90;;;;;;;19.76;100.00;98911.39;106209;1257;62337;-83
2023/11/05 20:42:03;;;;;;;2.90;1.80;;;;;;;19.75;100.00;98902.66;107131;1256;75192;-82
2023/11/05 20:44:44;;;;;;;5.40;2.80;;;;;;;20.00;100.00;98902.77;106467;1256;69142;-82
2023/11/05 20:47:23;;;;;;;7.60;2.70;;;;;;;19.86;100.00;98902.15;106592;1260;73693;-82
2023/11/05 20:50:04;;;;;;;4.20;2.40;;;;;;;19.73;100.00;98900.05;109170;1254;61689;-83
2023/11/05 20:52:43;;;;;;;6.80;2.70;;;;;;;19.76;100.00;98888.52;107572;1256;59395;-83
2023/11/05 20:55:24;;;;;;;5.00;2.40;;;;;;;19.92;100.00;98891.69;108235;1254;74520;-83
2023/11/05 20:58:05;;;;;;;5.00;2.30;;;;;;;20.03;100.00;98892.83;109044;1254;70955;-83
2023/11/05 21:00:46;;;;;;;4.70;2.10;;;;;;;19.90;100.00;98887.95;108668;1256;72415;-83
2023/11/05 21:03:26;;;;;;;6.90;2.30;;;;;;;19.88;100.00;98881.42;106794;1257;61344;-83
2023/11/05 21:06:11;;;;;;;6.10;2.40;;;;;;;19.75;100.00;98875.36;106607;1254;61255;-82
2023/11/05 21:08:51;;;;;;;5.50;2.10;;;;;;;19.65;100.00;98863.02;106498;1260;75648;-82
2023/11/05 21:11:30;;;;;;;5.80;2.40;;;;;;;19.70;100.00;98862.71;106867;1258;69191;-81
2023/11/05 21:14:11;;;;;;;6.00;2.20;;;;;;;19.69;100.00;98864.52;106441;1258;74590;-82
2023/11/05 21:16:50;;;;;;;5.80;2.20;;;;;;;19.79;100.00;98862.42;106261;1256;61633;-82
2023/11/05 21:19:30;;;;;;;4.00;2.20;;;;;;;19.85;100.00;98864.61;106413;1256;61224;-82
2023/11/05 21:22:10;;;;;;;6.00;2.10;;;;;;;19.65;100.00;98870.95;106445;1256;74632;-82
2023/11/05 21:24:57;;;;;;;4.40;2.20;;;;;;;19.76;100.00;98874.48;106420;1259;69930;-83
2023/11/05 21:27:37;;;;;;;4.80;2.10;;;;;;;19.81;100.00;98875.10;106464;1256;72796;-82
2023/11/05 21:30:17;;;;;;;4.00;1.70;;;;;;;19.84;100.00;98869.27;106292;1256;61310;-83
2023/11/05 21:32:56;;;;;;;4.80;2.10;;;;;;;19.92;100.00;98869.28;106603;1256;61176;-82
2023/11/05 21:35:37;;;;;;;3.30;1.50;;;;;;;20.03;100.00;98865.90;106328;1254;74665;-82
2023/11/05 21:38:17;;;;;;;4.10;1.60;;;;;;;19.96;100.00;98861.71;106223;1260;69084;-82
2023/11/05 21:40:57;;;;;;;5.60;1.70;;;;;;;20.03;100.00;98857.91;106169;1259;71457;-82
2023/11/05 21:43:38;;;;;;;7.10;1.80;;;;;;;20.16;100.00;98850.66;106644;1255;61306;-83
2023/11/05 21:46:18;;;;;;;4.00;1.60;;;;;;;20.17;100.00;98849.47;106085;1259;61343;-83
2023/11/05 21:49:00;;;;;;;7.20;1.70;;;;;;;20.13;100.00;98847.46;106341;1258;74865;-83
2023/11/05 21:51:40;;;;;;;10.70;2.20;;;;;;;20.11;100.00;98844.36;106221;1257;68440;-83
2023/11/05 21:54:20;;;;;;;3.10;1.60;;;;;;;20.05;100.00;98847.70;106644;1260;72435;-83
2023/11/05 21:57:03;;;;;;;5.80;2.00;;;;;;;20.13;100.00;98843.58;106111;1256;61411;-83
2023/11/05 21:59:43;;;;;;;8.10;2.30;;;;;;;20.27;100.00;98844.41;106235;1259;61126;-83
2023/11/05 22:02:23;;;;;;;4.40;1.80;;;;;;;20.25;100.00;98839.79;106662;1254;73918;-83
2023/11/05 22:05:03;;;;;;;5.70;1.80;;;;;;;20.09;100.00;98839.88;106295;1260;68677;-83
2023/11/05 22:07:43;;;;;;;7.00;2.00;;;;;;;19.85;100.00;98840.93;106151;1260;71426;-83
2023/11/05 22:10:23;;;;;;;4.50;1.80;;;;;;;20.05;100.00;98835.96;106082;1254;61245;-83
2023/11/05 22:13:21;;;;;;;5.70;2.40;;;;;;;20.15;100.00;98829.80;106233;1256;61372;-83
2023/11/05 22:16:01;;;;;;;6.50;2.00;;;;;;;20.19;100.00;98825.23;106395;1255;74731;-83
2023/11/05 22:18:41;;;;;;;7.10;2.00;;;;;;;20.25;100.00;98816.02;106069;1256;68572;-83
2023/11/05 22:21:21;;;;;;;3.50;1.80;;;;;;;20.15;100.00;98811.81;106098;1262;71496;-83
2023/11/05 22:24:02;;;;;;;5.10;2.20;;;;;;;20.07;100.00;98803.27;106194;1261;61306;-84
2023/11/05 22:26:42;;;;;;;4.50;1.90;;;;;;;19.88;100.00;98797.17;106903;1260;61142;-83
2023/11/05 22:29:23;;;;;;;4.10;1.60;;;;;;;20.01;100.00;98792.93;106099;1260;73453;-84
2023/11/05 22:32:03;;;;;;;6.50;2.00;;;;;;;20.11;100.00;98786.67;106116;1256;66635;-83
2023/11/05 22:34:42;;;;;;;5.20;2.30;;;;;;;20.06;100.00;98781.88;106073;1260;73095;-82
2023/11/05 22:37:23;;;;;;;6.10;1.60;;;;;;;20.15;100.00;98779.42;106535;1259;61340;-82
2023/11/05 22:40:10;;;;;;;5.90;2.00;;;;;;;20.18;100.00;98780.08;106144;1260;61256;-85
2023/11/05 22:42:51;;;;;;;7.00;1.60;;;;;;;20.25;100.00;98776.09;106142;1260;74536;-82
2023/11/05 22:45:32;;;;;;;4.50;2.00;;;;;;;20.23;100.00;98775.98;106796;1258;69318;-82
2023/11/05 22:48:12;;;;;;;3.00;1.40;;;;;;;20.23;100.00;98770.67;106048;1261;71432;-84
2023/11/05 22:50:52;;;;;;;9.30;2.20;;;;;;;20.24;100.00;98766.48;105912;1259;61370;-85
2023/11/05 22:53:29;;;;;;;8.90;1.90;;;;;;;20.39;100.00;98770.88;105974;1259;61245;-85
2023/11/05 22:56:10;;;;;;;6.80;2.30;;;;;;;20.34;100.00;98774.17;106968;1258;74700;-84
2023/11/05 22:58:54;;;;;;;5.90;2.20;;;;;;;20.54;100.00;98775.90;105994;1260;67238;-81
2023/11/05 23:01:34;;;;;;;6.50;2.00;;;;;;;20.55;100.00;98780.11;105972;1259;73099;-85
2023/11/05 23:04:14;;;;;;;3.70;2.00;;;;;;;20.54;100.00;98784.63;106356;1257;61288;-82
2023/11/05 23:06:43;;;;;;;6.70;1.90;;;;;;;20.55;100.00;98784.95;106109;1260;61320;-82
2023/11/05 23:09:11;;;;;;;6.70;1.90;;;;;;;20.66;100.00;98781.69;106070;1257;74910;-86
2023/11/05 23:11:39;;;;;;;7.30;1.60;;;;;;;20.69;100.00;98779.65;105922;1260;67135;-82
2023/11/05 23:14:09;;;;;;;4.10;1.40;;;;;;;20.68;100.00;98777.19;106358;1256;71471;-82
2023/11/05 23:16:39;;;;;;;5.90;1.80;;;;;;;20.53;100.00;98775.73;106060;1255;61312;-86
2023/11/05 23:19:07;;;;;;;4.40;1.80;;;;;;;20.47;100.00;98779.18;105962;1254;61334;-86
2023/11/05 23:21:35;;;;;;;6.90;1.80;;;;;;;20.37;100.00;98792.17;105992;1260;74634;-87
2023/11/05 23:24:03;;;;;;;8.20;1.90;;;;;;;20.33;100.00;98791.91;106066;1260;67187;-87
2023/11/05 23:26:31;;;;;;;6.20;2.00;;;;;;;20.36;100.00;98780.36;106504;1260;71362;-81
2023/11/05 23:29:06;;;;;;;6.10;2.10;;;;;;;20.24;100.00;98774.89;105979;1258;61696;-87
2023/11/05 23:31:37;;;;;;;4.50;2.10;;;;;;;20.15;100.00;98773.88;106056;1254;61317;-81
2023/11/05 23:34:09;;;;;;;5.10;1.90;;;;;;;20.07;100.00;98777.05;105974;1259;74630;-81
2023/11/05 23:36:42;;;;;;;7.40;2.30;;;;;;;20.03;100.00;98779.09;106262;1255;67159;-87
2023/11/05 23:39:16;;;;;;;9.90;2.40;;;;;;;20.09;100.00;98782.46;106043;1259;71790;-82
2023/11/05 23:41:47;;;;;;;5.10;1.90;;;;;;;20.19;100.00;98776.67;106097;1254;61153;-86
2023/11/05 23:44:21;;;;;;;5.40;2.40;;;;;;;20.27;100.00;98776.97;106218;1254;61301;-86
2023/11/05 23:46:52;;;;;;;7.50;1.80;;;;;;;20.38;100.00;98779.02;106500;1254;73395;-81
2023/11/05 23:49:29;;;;;;;6.30;2.00;;;;;;;20.40;100.00;98780.80;106184;1260;67773;-87
2023/11/05 23:52:01;;;;;;;4.90;2.10;;;;;;;20.38;100.00;98776.34;106041;1264;72700;-87
2023/11/05 23:54:31;;;;;;;8.90;2.20;;;;;;;20.49;100.00;98776.48;106421;1261;61326;-81
2023/11/05 23:57:05;;;;;;;6.50;2.30;;;;;;;20.58;100.00;98783.08;106061;1258;61337;-81
2023/11/05 23:59:39;;;;;;;5.30;2.30;;;;;;;20.55;100.00;98788.61;106066;1258;74656;-82
